createdAt,value
2023-03-14T00:00:21.721Z,97238.90
2023-03-14T00:03:10.992Z,97240.60
2023-03-14T00:05:40.496Z,97239.02
2023-03-14T00:08:09.795Z,97238.98
2023-03-14T00:10:39.959Z,97234.63
2023-03-14T00:13:09.209Z,97233.46
2023-03-14T00:15:39.289Z,97227.16
2023-03-14T00:18:08.940Z,97226.14
2023-03-14T00:20:37.835Z,97221.89
2023-03-14T00:23:07.578Z,97217.48
2023-03-14T00:25:38.168Z,97218.75
2023-03-14T00:28:08.093Z,97216.20
2023-03-14T00:30:39.209Z,97213.91
2023-03-14T00:33:09.140Z,97205.30
2023-03-14T00:35:39.761Z,97202.90
2023-03-14T00:38:08.961Z,97198.21
2023-03-14T00:40:41.124Z,97200.23
2023-03-14T00:43:10.545Z,97199.78
2023-03-14T00:45:41.019Z,97195.92
2023-03-14T00:48:13.303Z,97196.56
2023-03-14T00:50:43.806Z,97192.09
2023-03-14T00:53:14.329Z,97190.17
2023-03-14T00:55:44.097Z,97187.98
2023-03-14T00:58:16.108Z,97185.21
2023-03-14T01:00:47.160Z,97181.57
2023-03-14T01:03:17.170Z,97180.85
2023-03-14T01:05:46.646Z,97181.58
2023-03-14T01:08:16.542Z,97183.35
2023-03-14T01:10:48.045Z,97181.21
2023-03-14T01:13:19.314Z,97181.44
2023-03-14T01:15:49.755Z,97172.57
2023-03-14T01:18:21.197Z,97168.20
2023-03-14T01:20:51.817Z,97161.72
2023-03-14T01:23:23.236Z,97155.80
2023-03-14T01:25:53.589Z,97150.61
2023-03-14T01:28:24.528Z,97144.80
2023-03-14T01:30:55.079Z,97139.09
2023-03-14T01:33:26.558Z,97134.61
2023-03-14T01:35:58.332Z,97132.81
2023-03-14T01:38:36.243Z,97130.79
2023-03-14T01:41:13.804Z,97124.67
2023-03-14T01:43:45.463Z,97122.43
2023-03-14T01:46:19.271Z,97113.69
2023-03-14T01:49:10.369Z,97107.45
2023-03-14T01:51:43.425Z,97109.58
2023-03-14T01:54:29.152Z,97105.23
2023-03-14T01:57:33.626Z,97104.67
2023-03-14T02:00:16.049Z,97100.77
2023-03-14T02:02:51.859Z,97094.60
2023-03-14T02:05:29.043Z,97094.47
2023-03-14T02:08:09.527Z,97097.48
2023-03-14T02:10:50.041Z,97099.84
2023-03-14T02:13:24.974Z,97099.18
2023-03-14T02:16:02.116Z,97098.54
2023-03-14T02:18:56.813Z,97098.95
2023-03-14T02:22:09.931Z,97091.53
2023-03-14T02:25:10.304Z,97095.17
2023-03-14T02:27:41.284Z,97096.37
2023-03-14T02:30:15.419Z,97095.36
2023-03-14T02:32:55.257Z,97094.53
2023-03-14T02:35:29.808Z,97089.48
2023-03-14T02:38:24.214Z,97085.95
2023-03-14T02:40:54.282Z,97081.92
2023-03-14T02:43:25.398Z,97081.79
2023-03-14T02:46:02.784Z,97081.31
2023-03-14T02:48:42.497Z,97083.58
2023-03-14T02:51:13.771Z,97084.55
2023-03-14T02:53:45.315Z,97087.64
2023-03-14T02:56:15.767Z,97090.06
2023-03-14T02:58:46.352Z,97086.52
2023-03-14T03:01:37.673Z,97085.73
2023-03-14T03:04:10.285Z,97084.19
2023-03-14T03:06:40.738Z,97083.63
2023-03-14T03:09:11.341Z,97079.85
2023-03-14T03:11:41.434Z,97079.64
2023-03-14T03:14:12.964Z,97079.59
2023-03-14T03:16:43.243Z,97080.20
2023-03-14T03:19:12.401Z,97077.42
2023-03-14T03:21:41.827Z,97080.31
2023-03-14T03:24:12.430Z,97080.16
2023-03-14T03:26:42.762Z,97076.92
2023-03-14T03:29:13.637Z,97078.91
2023-03-14T03:31:43.358Z,97076.73
2023-03-14T03:34:14.354Z,97073.88
2023-03-14T03:36:44.752Z,97073.71
2023-03-14T03:39:15.633Z,97072.44
2023-03-14T03:41:46.701Z,97065.91
2023-03-14T03:44:18.119Z,97065.38
2023-03-14T03:46:47.615Z,97065.82
2023-03-14T03:49:17.684Z,97062.30
2023-03-14T03:51:48.361Z,97055.83
2023-03-14T03:54:18.070Z,97052.94
2023-03-14T03:56:47.983Z,97047.92
2023-03-14T03:59:17.695Z,97046.50
2023-03-14T04:01:49.075Z,97049.71
2023-03-14T04:04:21.774Z,97053.83
2023-03-14T04:06:53.101Z,97047.00
2023-03-14T04:09:23.285Z,97041.98
2023-03-14T04:12:10.590Z,97041.70
2023-03-14T04:14:58.196Z,97040.38
2023-03-14T04:17:27.184Z,97038.08
2023-03-14T04:19:56.864Z,97034.06
2023-03-14T04:22:34.742Z,97034.48
2023-03-14T04:25:05.098Z,97033.70
2023-03-14T04:27:38.352Z,97032.93
2023-03-14T04:30:13.378Z,97031.20
2023-03-14T04:32:50.937Z,97033.48
2023-03-14T04:35:21.357Z,97041.70
2023-03-14T04:37:50.814Z,97041.40
2023-03-14T04:40:20.643Z,97039.57
2023-03-14T04:42:51.874Z,97041.56
2023-03-14T04:45:21.885Z,97042.73
2023-03-14T04:47:51.276Z,97042.52
2023-03-14T04:50:22.012Z,97041.02
2023-03-14T04:52:51.993Z,97038.80
2023-03-14T04:55:23.428Z,97036.96
2023-03-14T04:57:53.696Z,97030.34
2023-03-14T05:00:23.726Z,97023.48
2023-03-14T05:03:29.480Z,97019.86
2023-03-14T05:06:27.553Z,97019.52
2023-03-14T05:08:56.934Z,97014.27
2023-03-14T05:11:40.472Z,97018.48
2023-03-14T05:14:19.335Z,97015.69
2023-03-14T05:17:15.933Z,97013.86
2023-03-14T05:20:11.422Z,97004.73
2023-03-14T05:23:16.086Z,97001.52
2023-03-14T05:26:00.135Z,97013.10
2023-03-14T05:28:50.213Z,97009.82
2023-03-14T05:31:31.855Z,97005.98
2023-03-14T05:34:32.741Z,97005.45
2023-03-14T05:37:24.159Z,97010.70
2023-03-14T05:40:08.149Z,97008.27
2023-03-14T05:42:44.275Z,97001.51
2023-03-14T05:45:34.460Z,97000.62
2023-03-14T05:48:31.278Z,97002.73
2023-03-14T05:51:11.859Z,97000.58
2023-03-14T05:53:52.176Z,97001.03
2023-03-14T05:56:44.979Z,96993.16
2023-03-14T05:59:34.051Z,96986.65
2023-03-14T06:02:17.293Z,96986.31
2023-03-14T06:04:51.889Z,96986.91
2023-03-14T06:07:21.094Z,96986.66
2023-03-14T06:09:50.923Z,96983.00
2023-03-14T06:12:20.706Z,96981.23
2023-03-14T06:14:49.599Z,96977.01
2023-03-14T06:17:18.807Z,96973.98
2023-03-14T06:19:53.523Z,96973.02
2023-03-14T06:22:22.831Z,96970.89
2023-03-14T06:24:51.809Z,96968.64
2023-03-14T06:27:21.115Z,96960.15
2023-03-14T06:29:50.013Z,96955.56
2023-03-14T06:32:19.755Z,96951.34
2023-03-14T06:34:50.140Z,96946.90
2023-03-14T06:37:21.085Z,96950.64
2023-03-14T06:39:50.481Z,96953.02
2023-03-14T06:42:25.823Z,96952.06
2023-03-14T06:44:54.916Z,96943.73
2023-03-14T06:47:23.816Z,96948.21
2023-03-14T06:49:53.213Z,96942.73
2023-03-14T06:52:22.524Z,96934.23
2023-03-14T06:54:51.502Z,96926.33
2023-03-14T06:57:23.339Z,96919.84
2023-03-14T06:59:52.473Z,96915.70
2023-03-14T07:02:27.035Z,96911.71
2023-03-14T07:05:02.632Z,96909.10
2023-03-14T07:07:31.810Z,96911.39
2023-03-14T07:10:00.847Z,96912.00
2023-03-14T07:12:30.759Z,96907.20
2023-03-14T07:15:08.678Z,96902.77
2023-03-14T07:17:45.306Z,96896.80
2023-03-14T07:20:14.194Z,96895.21
2023-03-14T07:22:43.193Z,96893.71
2023-03-14T07:25:13.639Z,96895.80
2023-03-14T07:27:46.040Z,96890.39
2023-03-14T07:30:15.856Z,96888.52
2023-03-14T07:32:44.476Z,96884.37
2023-03-14T07:35:14.301Z,96880.70
2023-03-14T07:37:44.227Z,96878.90
2023-03-14T07:40:16.795Z,96876.59
2023-03-14T07:42:45.686Z,96872.09
2023-03-14T07:45:20.313Z,96871.48
2023-03-14T07:47:48.856Z,96865.84
2023-03-14T07:50:17.989Z,96856.02
2023-03-14T07:52:46.677Z,96857.16
2023-03-14T07:55:15.679Z,96848.77
2023-03-14T07:57:45.386Z,96847.39
2023-03-14T08:00:17.907Z,96841.71
2023-03-14T08:02:47.609Z,96838.91
2023-03-14T08:05:16.872Z,96838.30
2023-03-14T08:07:45.551Z,96835.30
2023-03-14T08:10:24.329Z,96831.63
2023-03-14T08:12:56.821Z,96828.48
2023-03-14T08:15:26.524Z,96824.44
2023-03-14T08:17:55.638Z,96820.19
2023-03-14T08:20:28.159Z,96815.35
2023-03-14T08:23:02.863Z,96814.02
2023-03-14T08:25:32.198Z,96812.57
2023-03-14T08:28:02.683Z,96807.09
2023-03-14T08:30:31.810Z,96810.45
2023-03-14T08:33:01.059Z,96803.45
2023-03-14T08:35:31.099Z,96796.59
2023-03-14T08:38:00.939Z,96795.99
2023-03-14T08:40:29.899Z,96789.80
2023-03-14T08:42:58.782Z,96786.23
2023-03-14T08:45:28.294Z,96782.95
2023-03-14T08:47:58.700Z,96781.45
2023-03-14T08:50:28.085Z,96779.91
2023-03-14T08:52:59.098Z,96780.35
2023-03-14T08:55:28.763Z,96782.39
2023-03-14T08:57:57.341Z,96775.21
2023-03-14T09:00:26.236Z,96778.49
2023-03-14T09:02:55.500Z,96773.30
2023-03-14T09:05:24.530Z,96768.03
2023-03-14T09:07:53.524Z,96764.92
2023-03-14T09:10:24.481Z,96763.08
2023-03-14T09:12:53.150Z,96761.64
2023-03-14T09:15:22.054Z,96754.21
2023-03-14T09:17:50.956Z,96749.19
2023-03-14T09:20:19.921Z,96742.39
2023-03-14T09:22:48.563Z,96739.61
2023-03-14T09:25:18.127Z,96738.84
2023-03-14T09:27:47.624Z,96737.90
2023-03-14T09:30:16.474Z,96738.48
2023-03-14T09:32:45.652Z,96729.48
2023-03-14T09:35:14.610Z,96723.58
2023-03-14T09:37:44.087Z,96714.77
2023-03-14T09:40:21.583Z,96715.07
2023-03-14T09:42:53.255Z,96710.91
2023-03-14T09:45:35.880Z,96715.16
2023-03-14T09:48:06.483Z,96712.23
2023-03-14T09:50:43.157Z,96713.30
2023-03-14T09:53:20.021Z,96706.01
2023-03-14T09:55:52.261Z,96699.48
2023-03-14T09:58:23.738Z,96696.80
2023-03-14T10:00:56.830Z,96692.20
2023-03-14T10:03:34.136Z,96688.42
2023-03-14T10:06:10.797Z,96684.04
2023-03-14T10:08:46.838Z,96684.61
2023-03-14T10:11:19.491Z,96681.90
2023-03-14T10:14:10.954Z,96679.42
2023-03-14T10:16:46.561Z,96669.30
2023-03-14T10:31:27.618Z,96646.22
2023-03-14T10:34:05.304Z,96637.73
2023-03-14T10:36:36.409Z,96633.63
2023-03-14T10:39:35.709Z,96627.08
2023-03-14T10:42:16.317Z,96614.11
2023-03-14T10:44:45.572Z,96611.34
2023-03-14T10:47:24.912Z,96605.15
2023-03-14T10:49:53.794Z,96600.71
2023-03-14T10:52:57.559Z,96593.52
2023-03-14T10:55:18.064Z,96589.04
2023-03-14T10:57:46.646Z,96583.83
2023-03-14T11:00:24.073Z,96583.39
2023-03-14T11:03:11.084Z,96572.93
2023-03-14T11:05:59.652Z,96570.53
2023-03-14T11:08:56.383Z,96562.02
2023-03-14T11:11:29.674Z,96553.81
2023-03-14T11:14:19.246Z,96548.64
2023-03-14T11:17:03.311Z,96539.28
2023-03-14T11:20:27.382Z,96542.50
2023-03-14T11:23:09.453Z,96532.14
2023-03-14T11:25:51.580Z,96522.52
2023-03-14T11:28:44.350Z,96514.06
2023-03-14T11:31:22.404Z,96509.11
2023-03-14T11:34:12.626Z,96504.23
2023-03-14T11:36:57.288Z,96499.67
2023-03-14T11:39:30.479Z,96493.84
2023-03-14T11:42:01.316Z,96494.56
2023-03-14T11:44:39.525Z,96486.36
2023-03-14T11:47:28.586Z,96483.17
2023-03-14T11:50:20.385Z,96472.66
2023-03-14T11:52:48.888Z,96466.13
2023-03-14T11:55:29.569Z,96459.35
2023-03-14T11:58:05.516Z,96454.70
2023-03-14T12:00:34.975Z,96447.69
2023-03-14T12:03:06.229Z,96441.75
2023-03-14T12:06:01.473Z,96434.89
2023-03-14T12:08:52.127Z,96426.20
2023-03-14T12:12:01.004Z,96417.65
2023-03-14T12:14:33.874Z,96410.09
2023-03-14T12:17:09.268Z,96404.70
2023-03-14T12:19:40.878Z,96396.58
2023-03-14T12:22:34.343Z,96397.98
2023-03-14T12:25:08.770Z,96393.11
2023-03-14T12:27:46.667Z,96387.03
2023-03-14T12:30:30.930Z,96383.22
2023-03-14T12:33:12.710Z,96372.48
2023-03-14T12:35:52.842Z,96371.60
2023-03-14T12:38:42.748Z,96363.41
2023-03-14T12:41:30.279Z,96357.36
2023-03-14T12:44:30.589Z,96345.39
2023-03-14T12:47:20.188Z,96341.98
2023-03-14T12:49:53.479Z,96338.23
2023-03-14T12:52:42.929Z,96327.60
2023-03-14T12:55:41.945Z,96322.17
2023-03-14T12:58:28.850Z,96321.02
2023-03-14T13:01:02.632Z,96316.08
2023-03-14T13:03:47.325Z,96315.42
2023-03-14T13:06:55.106Z,96305.46
2023-03-14T13:09:38.658Z,96300.16
2023-03-14T13:12:19.218Z,96307.16
2023-03-14T13:14:51.206Z,96297.51
2023-03-14T13:17:37.622Z,96295.38
2023-03-14T13:20:35.555Z,96286.05
2023-03-14T13:23:04.820Z,96287.21
2023-03-14T13:25:34.977Z,96284.73
2023-03-14T13:28:05.180Z,96278.39
2023-03-14T13:30:42.232Z,96274.52
2023-03-14T13:33:19.779Z,96277.83
2023-03-14T13:36:01.796Z,96272.78
2023-03-14T13:38:33.180Z,96273.60
2023-03-14T13:41:10.916Z,96268.55
2023-03-14T13:43:47.635Z,96268.09
2023-03-14T13:46:26.579Z,96268.70
2023-03-14T13:49:03.293Z,96266.80
2023-03-14T13:51:36.798Z,96265.10
2023-03-14T13:54:15.733Z,96260.43
2023-03-14T13:56:45.496Z,96257.63
2023-03-14T13:59:28.659Z,96252.52
2023-03-14T14:02:00.207Z,96251.05
2023-03-14T14:04:30.793Z,96249.27
2023-03-14T14:07:01.690Z,96243.64
2023-03-14T14:09:40.798Z,96244.71
2023-03-14T14:12:16.849Z,96235.86
2023-03-14T14:15:17.599Z,96229.73
2023-03-14T14:17:56.206Z,96221.15
2023-03-14T14:20:32.988Z,96216.29
2023-03-14T14:23:08.106Z,96218.80
2023-03-14T14:25:38.188Z,96214.22
2023-03-14T14:28:33.040Z,96210.39
2023-03-14T14:31:21.051Z,96201.73
2023-03-14T14:33:59.798Z,96202.81
2023-03-14T14:36:33.617Z,96193.31
2023-03-14T14:39:21.347Z,96183.93
2023-03-14T14:41:53.126Z,96179.73
2023-03-14T14:44:37.263Z,96179.45
2023-03-14T14:47:06.718Z,96173.79
2023-03-14T14:49:35.541Z,96173.19
2023-03-14T14:52:44.605Z,96166.42
2023-03-14T14:55:15.163Z,96162.33
2023-03-14T14:57:58.019Z,96163.84
2023-03-14T15:00:28.761Z,96163.57
2023-03-14T15:03:01.300Z,96165.11
2023-03-14T15:05:37.370Z,96164.19
2023-03-14T15:08:11.107Z,96160.73
2023-03-14T15:10:42.423Z,96153.41
2023-03-14T15:13:13.871Z,96153.44
2023-03-14T15:15:44.723Z,96150.79
2023-03-14T15:18:18.859Z,96154.07
2023-03-14T15:20:47.730Z,96151.16
2023-03-14T15:23:20.042Z,96154.59
2023-03-14T15:25:57.464Z,96155.11
2023-03-14T15:28:31.358Z,96154.80
2023-03-14T15:31:00.294Z,96158.42
2023-03-14T15:33:29.089Z,96155.56
2023-03-14T15:35:58.636Z,96161.42
2023-03-14T15:38:27.281Z,96159.67
2023-03-14T15:40:56.163Z,96158.52
2023-03-14T15:43:24.953Z,96156.36
2023-03-14T15:45:53.830Z,96155.58
2023-03-14T15:48:23.382Z,96158.94
2023-03-14T15:50:52.136Z,96155.67
2023-03-14T15:53:20.947Z,96153.67
2023-03-14T15:55:49.636Z,96153.55
2023-03-14T15:58:21.857Z,96155.39
2023-03-14T16:00:51.330Z,96153.52
2023-03-14T16:03:20.103Z,96151.98
2023-03-14T16:05:49.065Z,96146.84
2023-03-14T16:08:18.660Z,96140.91
2023-03-14T16:10:48.078Z,96133.00
2023-03-14T16:13:17.059Z,96129.30
2023-03-14T16:16:06.701Z,96127.09
2023-03-14T16:18:37.690Z,96125.27
2023-03-14T16:21:13.427Z,96119.11
2023-03-14T16:23:42.520Z,96117.91
2023-03-14T16:26:14.183Z,96112.05
2023-03-14T16:28:43.560Z,96126.34
2023-03-14T16:31:19.368Z,96126.56
2023-03-14T16:33:48.312Z,96133.77
2023-03-14T16:36:17.050Z,96138.64
2023-03-14T16:38:46.917Z,96138.17
2023-03-14T16:41:17.744Z,96138.93
2023-03-14T16:43:51.459Z,96137.67
2023-03-14T16:46:22.910Z,96135.95
2023-03-14T16:48:51.931Z,96133.65
2023-03-14T16:51:21.427Z,96133.55
2023-03-14T16:53:52.456Z,96134.48
2023-03-14T16:56:21.966Z,96133.88
2023-03-14T16:58:51.257Z,96132.70
2023-03-14T17:01:19.990Z,96132.41
2023-03-14T17:03:52.815Z,96130.95
2023-03-14T17:06:27.744Z,96132.74
2023-03-14T17:08:58.472Z,96128.09
2023-03-14T17:11:27.282Z,96127.38
2023-03-14T17:13:55.955Z,96124.79
2023-03-14T17:16:25.002Z,96126.15
2023-03-14T17:18:54.268Z,96129.55
2023-03-14T17:21:23.967Z,96126.66
2023-03-14T17:23:52.755Z,96123.63
2023-03-14T17:26:21.533Z,96122.85
2023-03-14T17:28:50.223Z,96124.23
2023-03-14T17:31:20.999Z,96125.13
2023-03-14T17:33:54.140Z,96121.56
2023-03-14T17:36:26.726Z,96126.28
2023-03-14T17:38:58.630Z,96126.13
2023-03-14T17:41:27.520Z,96124.02
2023-03-14T17:43:57.593Z,96119.73
2023-03-14T22:22:24.260Z,96110.88
2023-03-14T22:24:54.292Z,96108.88
2023-03-14T22:27:23.143Z,96105.51
2023-03-14T22:29:52.589Z,96101.87
2023-03-14T22:32:21.762Z,96103.58
2023-03-14T22:34:50.634Z,96098.98
2023-03-14T22:37:19.829Z,96101.70
2023-03-14T22:39:48.827Z,96105.96
2023-03-14T22:42:17.823Z,96104.19
2023-03-14T22:44:46.832Z,96103.39
2023-03-14T22:47:17.033Z,96103.19
2023-03-14T22:49:46.133Z,96104.73
2023-03-14T22:52:15.862Z,96106.34
2023-03-14T22:54:45.449Z,96106.27
2023-03-14T22:57:16.317Z,96107.34
2023-03-14T22:59:45.421Z,96108.63
2023-03-14T23:02:15.197Z,96107.66
2023-03-14T23:04:44.311Z,96108.30
2023-03-14T23:07:14.009Z,96102.98
2023-03-14T23:09:43.503Z,96103.08
2023-03-14T23:12:18.029Z,96100.77
2023-03-14T23:14:47.318Z,96099.01
2023-03-14T23:17:17.474Z,96097.93
2023-03-14T23:19:47.181Z,96093.45
2023-03-14T23:22:17.679Z,96092.45
2023-03-14T23:24:49.052Z,96091.10
2023-03-14T23:27:19.271Z,96089.98
2023-03-14T23:29:48.770Z,96085.54
2023-03-14T23:32:18.760Z,96084.05
2023-03-14T23:34:49.422Z,96088.63
2023-03-14T23:37:19.463Z,96091.84
2023-03-14T23:39:48.562Z,96088.22
2023-03-14T23:42:17.725Z,96089.82
2023-03-14T23:44:47.171Z,96082.42
2023-03-14T23:47:16.420Z,96082.71
2023-03-14T23:49:45.599Z,96085.48
2023-03-14T23:52:15.541Z,96090.45
2023-03-14T23:54:45.352Z,96089.06
2023-03-14T23:57:15.167Z,96085.23
2023-03-14T23:59:44.447Z,96086.52
